Time;durP1;ratioP1;P1;durP2;ratioP2;P2;SDS_P1;SDS_P2;PMS_P1;PMS_P2;Temp;Humidity;BMP_temperature;BMP_pressure;BME280_temperature;BME280_humidity;BME280_pressure;Samples;Min_cycle;Max_cycle;Signal;HPM_P1;HPM_P2
2022/11/09 00:00:44;;;;;;;0.10;0.08;;;;;;;14.39;100.00;97768.53;7396851;19;20480;-61
2022/11/09 00:03:11;;;;;;;0.30;0.20;;;;;;;14.31;100.00;97764.94;7397654;19;20015;-60
2022/11/09 00:05:37;;;;;;;0.10;0.00;;;;;;;14.35;100.00;97765.34;7396380;19;20045;-61
2022/11/09 00:08:08;;;;;;;0.10;0.00;;;;;;;14.30;100.00;97757.84;7397171;19;20608;-61
2022/11/09 00:10:35;;;;;;;1.17;1.10;;;;;;;14.29;100.00;97762.69;7396592;19;20006;-61
2022/11/09 00:13:02;;;;;;;0.47;0.47;;;;;;;14.27;100.00;97772.91;7397940;19;20070;-61
2022/11/09 00:15:28;;;;;;;1.65;0.60;;;;;;;14.40;100.00;97767.25;7398233;19;20008;-61
2022/11/09 00:17:55;;;;;;;9.80;0.50;;;;;;;14.40;100.00;97778.44;7396846;19;20018;-61
2022/11/09 00:20:21;;;;;;;0.00;0.00;;;;;;;14.38;100.00;97789.41;7395886;19;20011;-61
2022/11/09 00:22:47;;;;;;;0.10;0.10;;;;;;;14.34;100.00;97786.97;7397750;19;20007;-61
2022/11/09 00:25:14;;;;;;;3.15;1.10;;;;;;;14.36;100.00;97778.03;7395286;19;20017;-61
2022/11/09 00:27:40;;;;;;;11.07;0.85;;;;;;;14.43;100.00;97782.91;7395526;19;20111;-61
2022/11/09 00:30:09;;;;;;;0.10;0.00;;;;;;;14.49;100.00;97791.19;7396945;19;20003;-61
2022/11/09 00:32:35;;;;;;;0.10;0.10;;;;;;;14.46;100.00;97798.63;7395640;19;20010;-61
2022/11/09 00:35:02;;;;;;;0.63;0.13;;;;;;;14.45;100.00;97799.91;7392990;19;20011;-61
2022/11/09 00:37:29;;;;;;;1.90;0.47;;;;;;;14.57;100.00;97798.31;7397160;19;20411;-61
2022/11/09 00:39:55;;;;;;;1.95;1.23;;;;;;;14.69;100.00;97798.72;7394050;19;20010;-61
2022/11/09 00:42:21;;;;;;;0.10;0.00;;;;;;;14.62;100.00;97807.88;7397037;19;20054;-61
2022/11/09 00:44:50;;;;;;;0.10;0.10;;;;;;;14.61;100.00;97803.56;7394419;19;20011;-61
2022/11/09 00:47:16;;;;;;;0.10;0.05;;;;;;;14.52;100.00;97801.25;7396382;19;20011;-60
2022/11/09 00:49:42;;;;;;;2.05;0.10;;;;;;;14.47;100.00;97810.59;7395475;19;20034;-60
2022/11/09 00:52:08;;;;;;;0.40;0.30;;;;;;;14.37;100.00;97818.75;7392276;19;20014;-61
2022/11/09 00:54:34;;;;;;;0.10;0.00;;;;;;;14.29;100.00;97818.69;7394190;19;20014;-61
2022/11/09 00:57:01;;;;;;;2.95;1.13;;;;;;;14.21;100.00;97817.09;7392274;19;20014;-62
2022/11/09 00:59:27;;;;;;;0.52;0.32;;;;;;;14.21;100.00;97817.09;7394128;19;20018;-61
2022/11/09 01:01:53;;;;;;;6.95;0.22;;;;;;;14.16;100.00;97815.22;7389912;19;20014;-61
2022/11/09 01:04:19;;;;;;;1.00;0.30;;;;;;;14.18;100.00;97815.41;7390855;19;20118;-61
2022/11/09 01:06:45;;;;;;;0.17;0.17;;;;;;;14.13;100.00;97827.50;7392139;19;20043;-61
2022/11/09 01:09:12;;;;;;;0.32;0.22;;;;;;;14.12;100.00;97820.41;7389327;19;20043;-61
2022/11/09 01:11:38;;;;;;;0.10;0.10;;;;;;;14.14;100.00;97823.41;7396237;19;20012;-61
2022/11/09 01:14:04;;;;;;;0.10;0.08;;;;;;;14.09;100.00;97821.50;7390879;19;20015;-61
2022/11/09 01:16:30;;;;;;;0.10;0.10;;;;;;;14.02;100.00;97822.94;7390281;19;20019;-61
2022/11/09 01:18:57;;;;;;;0.22;0.05;;;;;;;13.98;100.00;97824.59;7396742;19;20032;-61
2022/11/09 01:21:25;;;;;;;0.47;0.47;;;;;;;14.00;100.00;97822.00;7401022;19;20018;-60
2022/11/09 01:23:51;;;;;;;0.10;0.10;;;;;;;13.85;100.00;97825.41;7397297;19;20523;-61
2022/11/09 01:26:18;;;;;;;0.10;0.10;;;;;;;13.81;100.00;97818.66;7398240;19;20010;-61
2022/11/09 01:28:44;;;;;;;0.10;0.10;;;;;;;13.87;100.00;97822.81;7400574;19;20043;-61
2022/11/09 01:31:13;;;;;;;0.10;0.00;;;;;;;13.85;100.00;97817.03;7400160;19;20011;-61
2022/11/09 01:33:40;;;;;;;3.33;1.42;;;;;;;13.85;100.00;97819.81;7397898;19;20034;-61
2022/11/09 01:36:10;;;;;;;0.47;0.47;;;;;;;13.86;100.00;97826.91;7397387;19;20015;-61
2022/11/09 01:38:37;;;;;;;0.10;0.00;;;;;;;13.90;100.00;97821.00;7395150;19;20022;-61
2022/11/09 01:41:08;;;;;;;1.15;0.17;;;;;;;13.85;100.00;97821.88;7400326;19;20043;-60
2022/11/09 01:43:34;;;;;;;0.10;0.10;;;;;;;13.98;100.00;97832.97;7401400;19;20010;-61
2022/11/09 01:46:31;;;;;;;0.38;0.38;;;;;;;14.05;100.00;97832.31;7401074;19;20007;-61
2022/11/09 01:49:04;;;;;;;1.25;0.45;;;;;;;13.99;100.00;97834.50;7403508;19;20467;-61
2022/11/09 01:51:46;;;;;;;0.10;0.10;;;;;;;14.04;100.00;97833.59;7402987;19;20015;-61
2022/11/09 01:54:20;;;;;;;0.15;0.15;;;;;;;14.09;100.00;97832.69;7397343;19;20070;-61
2022/11/09 01:56:50;;;;;;;0.38;0.30;;;;;;;14.11;100.00;97846.91;7396453;19;20010;-61
2022/11/09 01:59:21;;;;;;;0.10;0.00;;;;;;;14.10;100.00;97846.13;7400124;19;20114;-61
2022/11/09 02:01:48;;;;;;;0.75;0.47;;;;;;;14.00;100.00;97847.19;7400236;19;20010;-61
2022/11/09 02:04:35;;;;;;;2.65;0.68;;;;;;;14.01;100.00;97855.03;7395254;19;20039;-61
2022/11/09 02:07:02;;;;;;;0.10;0.00;;;;;;;13.88;100.00;97862.75;7393996;19;20364;-61
2022/11/09 02:09:31;;;;;;;10.52;1.00;;;;;;;14.09;100.00;97861.44;7396109;19;20039;-61
2022/11/09 02:11:59;;;;;;;0.10;0.00;;;;;;;14.26;100.00;97858.22;7397043;19;20109;-61
2022/11/09 02:14:28;;;;;;;0.10;0.00;;;;;;;14.34;100.00;97859.03;7394503;19;20039;-61
2022/11/09 02:16:55;;;;;;;0.10;0.00;;;;;;;14.35;100.00;97854.94;7396211;19;20013;-60
2022/11/09 02:19:21;;;;;;;2.88;0.30;;;;;;;14.37;100.00;97863.53;7394659;19;20015;-61
2022/11/09 02:21:49;;;;;;;0.10;0.10;;;;;;;14.24;100.00;97872.00;7401044;19;20035;-61
2022/11/09 02:24:16;;;;;;;2.25;0.55;;;;;;;14.31;100.00;97874.16;7397378;19;20110;-61
2022/11/09 02:26:47;;;;;;;1.05;0.95;;;;;;;14.21;100.00;97871.03;7397268;19;20459;-61
2022/11/09 02:29:18;;;;;;;0.10;0.10;;;;;;;14.11;100.00;97880.47;7398774;19;20007;-60
2022/11/09 02:31:52;;;;;;;0.00;0.00;;;;;;;14.01;100.00;97879.47;7402091;19;20031;-61
2022/11/09 02:34:20;;;;;;;0.10;0.10;;;;;;;14.15;100.00;97880.88;7394607;19;20018;-61
2022/11/09 02:36:47;;;;;;;0.40;0.40;;;;;;;14.24;100.00;97894.41;7395272;19;20021;-61
2022/11/09 02:39:21;;;;;;;0.10;0.00;;;;;;;14.34;100.00;97875.84;7395458;19;20073;-61
2022/11/09 02:41:58;;;;;;;0.20;0.20;;;;;;;14.31;100.00;97882.53;7400158;19;20014;-60
2022/11/09 02:44:32;;;;;;;0.10;0.00;;;;;;;14.48;100.00;97877.25;7401556;19;20011;-61
2022/11/09 02:46:58;;;;;;;0.20;0.10;;;;;;;14.57;100.00;97873.94;7395263;19;20028;-60
2022/11/09 02:49:26;;;;;;;0.10;0.10;;;;;;;14.67;100.00;97880.53;7394341;19;20384;-61
2022/11/09 02:51:52;;;;;;;0.45;0.15;;;;;;;14.67;100.00;97874.94;7399435;19;20045;-61
2022/11/09 02:54:18;;;;;;;0.10;0.10;;;;;;;14.65;100.00;97879.59;7394620;19;20017;-60
2022/11/09 02:56:44;;;;;;;0.20;0.20;;;;;;;14.65;100.00;97885.94;7396155;19;20010;-61
2022/11/09 02:59:10;;;;;;;1.35;0.55;;;;;;;14.86;100.00;97881.03;7398495;19;20011;-61
2022/11/09 03:01:38;;;;;;;0.10;0.10;;;;;;;15.16;100.00;97875.56;7398185;19;20010;-61
2022/11/09 03:04:04;;;;;;;0.90;0.60;;;;;;;15.19;100.00;97885.66;7396560;19;20019;-61
2022/11/09 03:06:34;;;;;;;0.10;0.00;;;;;;;15.33;100.00;97880.69;7397732;19;20456;-61
2022/11/09 03:09:08;;;;;;;0.10;0.10;;;;;;;15.18;100.00;97889.75;7398927;19;20015;-60
2022/11/09 03:11:35;;;;;;;1.00;0.57;;;;;;;14.91;100.00;97888.53;7398609;19;20017;-60
2022/11/09 03:14:02;;;;;;;0.10;0.10;;;;;;;14.74;100.00;97879.84;7394017;19;20007;-61
2022/11/09 03:16:30;;;;;;;0.65;0.57;;;;;;;14.54;100.00;97882.69;7394506;19;20836;-61
2022/11/09 03:18:57;;;;;;;0.32;0.32;;;;;;;14.44;100.00;97890.84;7394151;19;20045;-60
2022/11/09 03:21:24;;;;;;;0.20;0.20;;;;;;;14.50;100.00;97883.06;7398005;19;20014;-59
2022/11/09 03:23:53;;;;;;;0.10;0.00;;;;;;;14.66;100.00;97895.84;7394365;19;20011;-61
2022/11/09 03:26:20;;;;;;;0.20;0.20;;;;;;;14.68;100.00;97901.66;7394421;19;20478;-61
2022/11/09 03:28:46;;;;;;;0.22;0.22;;;;;;;14.79;100.00;97904.13;7397865;19;20010;-61
2022/11/09 03:31:13;;;;;;;2.92;0.85;;;;;;;14.81;100.00;97904.34;7397506;19;20030;-59
2022/11/09 03:33:39;;;;;;;0.15;0.00;;;;;;;14.76;100.00;97905.25;7392018;19;20069;-61
2022/11/09 03:36:06;;;;;;;0.13;0.13;;;;;;;14.71;100.00;97908.97;7392658;19;20458;-61
2022/11/09 03:38:32;;;;;;;0.10;0.00;;;;;;;14.65;100.00;97919.56;7395646;19;20007;-59
2022/11/09 03:40:59;;;;;;;0.80;0.20;;;;;;;14.71;100.00;97916.59;7395803;19;20014;-61
2022/11/09 03:43:25;;;;;;;0.10;0.00;;;;;;;14.84;100.00;97917.25;7396841;19;20022;-61
2022/11/09 03:45:51;;;;;;;0.80;0.63;;;;;;;14.89;100.00;97915.59;7399599;19;20007;-61
2022/11/09 03:48:17;;;;;;;0.10;0.00;;;;;;;14.75;100.00;97931.78;7393738;19;20373;-61
2022/11/09 03:50:44;;;;;;;0.32;0.32;;;;;;;14.80;100.00;97930.88;7395720;19;20014;-59
2022/11/09 03:53:11;;;;;;;0.20;0.20;;;;;;;14.81;100.00;97923.94;7396173;19;20017;-61
2022/11/09 03:55:38;;;;;;;0.10;0.10;;;;;;;14.90;100.00;97937.47;7397297;19;20109;-61
2022/11/09 03:58:06;;;;;;;0.20;0.20;;;;;;;14.84;100.00;97939.69;7395920;19;20022;-66
2022/11/09 04:00:32;;;;;;;0.73;0.20;;;;;;;14.89;100.00;97941.59;7397004;19;20022;-60
2022/11/09 04:02:59;;;;;;;0.20;0.20;;;;;;;14.90;100.00;97953.56;7393609;19;20006;-64
2022/11/09 04:05:25;;;;;;;0.20;0.20;;;;;;;14.75;100.00;97954.19;7392167;19;20070;-61
2022/11/09 04:07:53;;;;;;;0.10;0.10;;;;;;;14.81;100.00;97954.06;7394504;19;20010;-59
2022/11/09 04:10:21;;;;;;;0.95;0.52;;;;;;;14.78;100.00;97958.69;7395864;19;20085;-61
2022/11/09 04:12:48;;;;;;;0.15;0.15;;;;;;;14.86;100.00;97965.09;7394592;19;20022;-61
2022/11/09 04:15:15;;;;;;;4.28;0.95;;;;;;;15.07;100.00;97953.84;7394662;19;20078;-61
2022/11/09 04:17:43;;;;;;;1.65;0.35;;;;;;;15.11;100.00;97957.78;7393362;19;20044;-61
2022/11/09 04:20:09;;;;;;;0.10;0.00;;;;;;;15.11;100.00;97952.19;7392893;19;20015;-61
2022/11/09 04:22:35;;;;;;;0.28;0.22;;;;;;;15.25;100.00;97954.84;7393737;19;20030;-59
2022/11/09 04:25:03;;;;;;;0.10;0.00;;;;;;;15.37;100.00;97953.22;7398000;19;20043;-61
2022/11/09 04:27:29;;;;;;;0.15;0.15;;;;;;;15.45;100.00;97963.22;7392252;19;20011;-61
2022/11/09 04:29:56;;;;;;;0.10;0.10;;;;;;;15.36;100.00;97960.13;7392819;19;20035;-59
2022/11/09 04:32:22;;;;;;;0.47;0.47;;;;;;;15.26;100.00;97970.38;7393825;19;20011;-61
2022/11/09 04:34:48;;;;;;;0.08;0.00;;;;;;;15.17;100.00;97972.41;7392468;19;20010;-61
2022/11/09 04:37:14;;;;;;;1.00;0.25;;;;;;;15.24;100.00;97970.19;7392428;19;20014;-61
2022/11/09 04:39:40;;;;;;;0.10;0.00;;;;;;;15.29;100.00;97980.50;7394160;19;20014;-59
2022/11/09 04:42:07;;;;;;;1.17;0.68;;;;;;;15.06;100.00;97983.91;7393486;19;20011;-61
2022/11/09 04:44:33;;;;;;;1.13;0.20;;;;;;;14.90;100.00;97987.91;7396181;19;20015;-59
2022/11/09 04:46:59;;;;;;;0.20;0.20;;;;;;;15.01;100.00;97993.22;7393372;19;20015;-59
2022/11/09 04:49:25;;;;;;;0.10;0.00;;;;;;;14.81;100.00;97982.81;7393135;19;20023;-61
2022/11/09 04:51:51;;;;;;;0.57;0.57;;;;;;;14.64;100.00;98004.19;7397132;19;20014;-59
2022/11/09 04:54:17;;;;;;;0.10;0.10;;;;;;;14.56;100.00;98004.09;7398093;19;20113;-61
2022/11/09 04:56:43;;;;;;;0.10;0.00;;;;;;;14.40;100.00;98005.28;7400646;19;20025;-61
2022/11/09 04:59:10;;;;;;;0.68;0.38;;;;;;;14.34;100.00;98010.25;7403205;19;20018;-59
2022/11/09 05:01:36;;;;;;;0.28;0.28;;;;;;;14.19;100.00;98012.88;7403812;19;20037;-61
2022/11/09 05:04:02;;;;;;;0.13;0.08;;;;;;;14.17;100.00;98010.63;7400556;19;20007;-61
2022/11/09 05:06:31;;;;;;;0.17;0.17;;;;;;;14.17;100.00;98007.06;7399367;19;20014;-59
2022/11/09 05:09:07;;;;;;;0.95;0.40;;;;;;;14.15;100.00;98015.25;7404998;19;20463;-59
2022/11/09 05:11:34;;;;;;;0.10;0.10;;;;;;;14.16;100.00;98016.78;7404450;19;20018;-61
2022/11/09 05:14:02;;;;;;;0.10;0.10;;;;;;;14.10;100.00;98013.34;7398863;19;20022;-61
2022/11/09 05:16:29;;;;;;;0.10;0.05;;;;;;;14.15;100.00;98020.84;7400581;19;20470;-61
2022/11/09 05:18:55;;;;;;;6.07;0.30;;;;;;;14.19;100.00;98026.88;7399732;19;20007;-60
2022/11/09 05:21:22;;;;;;;0.03;0.00;;;;;;;14.25;100.00;98024.72;7401209;19;20014;-61
2022/11/09 05:24:00;;;;;;;0.10;0.00;;;;;;;14.26;100.00;98020.59;7399786;19;20015;-59
2022/11/09 05:26:31;;;;;;;0.30;0.30;;;;;;;14.24;100.00;98023.94;7399743;19;20019;-61
2022/11/09 05:29:00;;;;;;;0.15;0.15;;;;;;;14.25;100.00;98021.91;7399099;19;20007;-61
2022/11/09 05:31:27;;;;;;;0.57;0.57;;;;;;;14.34;100.00;98027.03;7402626;19;20022;-61
2022/11/09 05:33:53;;;;;;;0.50;0.50;;;;;;;14.41;100.00;98024.31;7398575;19;20039;-61
2022/11/09 05:36:20;;;;;;;2.17;0.80;;;;;;;14.51;100.00;98038.59;7398825;19;20010;-61
2022/11/09 05:38:46;;;;;;;0.17;0.10;;;;;;;14.42;100.00;98041.88;7398363;19;20006;-59
2022/11/09 05:41:12;;;;;;;0.20;0.10;;;;;;;14.34;100.00;98050.22;7401725;19;20021;-61
2022/11/09 05:43:39;;;;;;;0.40;0.40;;;;;;;14.30;100.00;98054.63;7403736;19;20010;-61
2022/11/09 05:46:05;;;;;;;0.15;0.15;;;;;;;14.31;100.00;98054.09;7399023;19;20032;-61
2022/11/09 05:48:32;;;;;;;0.40;0.35;;;;;;;14.33;100.00;98059.91;7398522;19;20080;-61
2022/11/09 05:51:03;;;;;;;0.45;0.45;;;;;;;14.38;100.00;98066.66;7399813;19;20018;-61
2022/11/09 05:53:30;;;;;;;3.03;0.20;;;;;;;14.36;100.00;98063.66;7400432;19;20030;-59
2022/11/09 05:56:07;;;;;;;0.63;0.45;;;;;;;14.39;100.00;98068.19;7401275;19;20019;-61
2022/11/09 05:58:38;;;;;;;0.10;0.10;;;;;;;14.44;100.00;98065.22;7399094;19;20028;-61
2022/11/09 06:01:05;;;;;;;0.47;0.47;;;;;;;14.48;100.00;98072.56;7402034;19;20018;-59
2022/11/09 06:03:32;;;;;;;0.10;0.00;;;;;;;14.43;100.00;98074.19;7398263;19;20015;-61
2022/11/09 06:06:04;;;;;;;0.75;0.38;;;;;;;14.58;100.00;98074.34;7402451;19;20010;-61
2022/11/09 06:08:30;;;;;;;0.52;0.38;;;;;;;14.63;100.00;98070.66;7398229;19;20021;-61
2022/11/09 06:11:01;;;;;;;0.20;0.20;;;;;;;14.71;100.00;98079.88;7400772;19;20010;-61
2022/11/09 06:13:28;;;;;;;0.35;0.05;;;;;;;14.67;100.00;98079.47;7398306;19;20019;-61
2022/11/09 06:15:55;;;;;;;0.10;0.08;;;;;;;14.78;100.00;98084.81;7398034;19;20095;-61
2022/11/09 06:18:26;;;;;;;0.10;0.10;;;;;;;14.72;100.00;98083.44;7397464;19;20017;-59
2022/11/09 06:20:56;;;;;;;1.27;0.70;;;;;;;14.82;100.00;98088.00;7400366;19;20813;-59
2022/11/09 06:23:24;;;;;;;0.15;0.15;;;;;;;14.82;100.00;98090.81;7397450;19;20022;-60
2022/11/09 06:25:52;;;;;;;0.43;0.10;;;;;;;14.92;100.00;98097.44;7397079;19;20007;-59
2022/11/09 06:28:19;;;;;;;0.30;0.22;;;;;;;14.90;100.00;98090.88;7397422;19;20044;-59
2022/11/09 06:30:45;;;;;;;1.83;0.55;;;;;;;14.87;100.00;98094.78;7397663;19;20015;-61
2022/11/09 06:33:11;;;;;;;1.25;0.68;;;;;;;14.95;100.00;98101.94;7397313;19;20030;-61
2022/11/09 06:35:38;;;;;;;0.10;0.10;;;;;;;14.83;100.00;98103.53;7395084;19;20467;-59
2022/11/09 06:38:04;;;;;;;0.10;0.00;;;;;;;14.80;100.00;98110.22;7398128;19;20007;-59
2022/11/09 06:40:30;;;;;;;6.88;0.75;;;;;;;14.98;100.00;98112.09;7400696;19;20348;-59
2022/11/09 06:42:59;;;;;;;0.10;0.00;;;;;;;15.09;100.00;98106.16;7396106;19;20026;-59
2022/11/09 06:45:28;;;;;;;0.10;0.10;;;;;;;15.11;100.00;98120.41;7399767;19;20019;-59
2022/11/09 06:47:55;;;;;;;0.10;0.10;;;;;;;15.29;100.00;98117.94;7395238;19;20011;-59
2022/11/09 06:50:22;;;;;;;0.10;0.10;;;;;;;15.29;100.00;98106.72;7398123;19;20015;-59
2022/11/09 06:52:48;;;;;;;0.10;0.00;;;;;;;15.35;100.00;98121.34;7397841;19;20112;-59
2022/11/09 06:55:14;;;;;;;0.38;0.38;;;;;;;15.50;100.00;98124.28;7395467;19;20022;-59
2022/11/09 06:57:40;;;;;;;0.10;0.10;;;;;;;15.71;100.00;98114.50;7396770;19;21204;-59
2022/11/09 07:00:07;;;;;;;0.10;0.05;;;;;;;15.69;100.00;98127.56;7397623;19;20014;-61
2022/11/09 07:02:33;;;;;;;2.17;0.15;;;;;;;15.54;100.00;98133.09;7395805;19;20023;-62
2022/11/09 07:04:59;;;;;;;1.23;0.55;;;;;;;15.61;100.00;98138.75;7395572;19;20019;-61
2022/11/09 07:07:26;;;;;;;1.30;0.22;;;;;;;15.58;100.00;98144.69;7394663;19;20039;-59
2022/11/09 07:09:52;;;;;;;0.20;0.20;;;;;;;15.52;100.00;98139.25;7394702;19;20011;-60
2022/11/09 07:12:18;;;;;;;0.90;0.30;;;;;;;15.60;100.00;98142.09;7396264;19;20014;-59
2022/11/09 07:14:44;;;;;;;3.17;0.20;;;;;;;15.72;100.00;98148.91;7398266;19;20015;-59
2022/11/09 07:17:10;;;;;;;0.57;0.30;;;;;;;15.58;100.00;98151.06;7398581;19;20121;-59
2022/11/09 07:19:36;;;;;;;0.10;0.10;;;;;;;15.53;100.00;98165.22;7398343;19;20011;-59
2022/11/09 07:22:03;;;;;;;0.22;0.22;;;;;;;15.54;100.00;98172.38;7396836;19;20014;-59
2022/11/09 07:24:29;;;;;;;0.52;0.52;;;;;;;15.54;100.00;98175.16;7396314;19;20360;-59
2022/11/09 07:26:55;;;;;;;0.28;0.28;;;;;;;15.65;100.00;98183.28;7399058;19;20011;-59
2022/11/09 07:29:21;;;;;;;0.35;0.20;;;;;;;15.68;100.00;98188.56;7399077;19;20013;-60
2022/11/09 07:31:47;;;;;;;1.95;0.38;;;;;;;15.58;100.00;98200.81;7399456;19;20030;-60
2022/11/09 07:34:14;;;;;;;5.57;1.08;;;;;;;15.63;100.00;98197.13;7397789;19;20082;-60
2022/11/09 07:36:40;;;;;;;1.13;0.90;;;;;;;15.60;100.00;98203.81;7394321;19;20344;-60
2022/11/09 07:39:06;;;;;;;7.95;0.45;;;;;;;15.51;100.00;98207.88;7398223;19;20019;-60
2022/11/09 07:41:32;;;;;;;0.50;0.30;;;;;;;15.43;100.00;98206.28;7398910;19;20467;-59
2022/11/09 07:43:59;;;;;;;1.17;1.00;;;;;;;15.49;100.00;98213.28;7395565;19;20066;-60
2022/11/09 07:46:25;;;;;;;0.10;0.10;;;;;;;15.51;100.00;98213.50;7394756;19;20408;-60
2022/11/09 07:48:51;;;;;;;0.35;0.25;;;;;;;15.47;100.00;98218.69;7393784;19;20402;-60
2022/11/09 07:51:17;;;;;;;0.73;0.30;;;;;;;15.54;100.00;98225.69;7396095;19;20006;-60
2022/11/09 07:53:43;;;;;;;0.57;0.47;;;;;;;15.49;100.00;98226.56;7392425;19;20026;-60
2022/11/09 07:56:09;;;;;;;0.10;0.10;;;;;;;15.47;100.00;98226.34;7393182;19;20010;-60
2022/11/09 07:58:36;;;;;;;0.68;0.13;;;;;;;15.42;100.00;98238.47;7396965;19;20025;-60
2022/11/09 08:01:07;;;;;;;1.23;0.65;;;;;;;15.34;100.00;98243.22;7396515;19;20006;-60
2022/11/09 08:03:33;;;;;;;0.28;0.28;;;;;;;15.17;100.00;98247.22;7397213;19;20014;-61
2022/11/09 08:05:59;;;;;;;0.10;0.10;;;;;;;15.17;100.00;98257.66;7395969;19;20007;-59
2022/11/09 08:08:25;;;;;;;0.10;0.10;;;;;;;15.13;100.00;98260.81;7397365;19;20082;-59
2022/11/09 08:10:52;;;;;;;0.30;0.20;;;;;;;15.08;100.00;98272.91;7397038;19;20027;-60
2022/11/09 08:13:19;;;;;;;1.77;0.22;;;;;;;15.09;100.00;98285.59;7393136;19;20011;-60
2022/11/09 08:15:45;;;;;;;0.65;0.38;;;;;;;15.05;100.00;98278.84;7392398;19;20400;-59
2022/11/09 08:18:18;;;;;;;0.10;0.10;;;;;;;14.91;100.00;98285.78;7393969;19;20034;-60
2022/11/09 08:20:45;;;;;;;0.10;0.10;;;;;;;14.80;100.00;98303.59;7395968;19;20007;-59
2022/11/09 08:23:17;;;;;;;1.85;0.38;;;;;;;14.91;100.00;98297.00;7393169;19;20070;-60
2022/11/09 08:25:44;;;;;;;0.25;0.25;;;;;;;14.95;100.00;98303.78;7397773;19;20011;-59
2022/11/09 08:28:10;;;;;;;0.10;0.10;;;;;;;15.06;100.00;98311.94;7392299;19;20039;-60
2022/11/09 08:30:37;;;;;;;0.10;0.00;;;;;;;15.18;100.00;98313.19;7395121;19;20017;-59
2022/11/09 08:33:03;;;;;;;0.10;0.10;;;;;;;15.23;100.00;98319.22;7390447;19;20011;-60
2022/11/09 08:35:29;;;;;;;0.30;0.20;;;;;;;15.18;100.00;98321.59;7390892;19;20082;-59
2022/11/09 08:38:00;;;;;;;0.10;0.10;;;;;;;15.26;100.00;98323.75;7391308;19;20477;-60
2022/11/09 08:40:26;;;;;;;1.30;0.10;;;;;;;15.24;100.00;98323.53;7394700;19;20011;-60
2022/11/09 08:42:52;;;;;;;2.08;0.82;;;;;;;15.18;100.00;98332.09;7397328;19;20260;-60
2022/11/09 08:45:19;;;;;;;0.10;0.10;;;;;;;15.10;100.00;98332.00;7393988;19;20015;-60
2022/11/09 08:47:46;;;;;;;0.10;0.10;;;;;;;15.02;100.00;98336.00;7396522;19;20025;-60
2022/11/09 08:50:13;;;;;;;0.10;0.10;;;;;;;14.87;100.00;98336.59;7395264;19;20010;-60
2022/11/09 08:52:40;;;;;;;6.03;0.30;;;;;;;15.04;100.00;98334.16;7391692;19;20353;-60
2022/11/09 08:55:06;;;;;;;0.10;0.10;;;;;;;15.07;100.00;98344.28;7390367;19;20089;-60
2022/11/09 08:57:33;;;;;;;0.10;0.00;;;;;;;14.83;100.00;98344.56;7393051;19;20018;-59
2022/11/09 08:59:59;;;;;;;0.45;0.20;;;;;;;15.01;100.00;98345.69;7396357;19;20015;-60
2022/11/09 09:02:25;;;;;;;6.65;0.22;;;;;;;15.05;100.00;98346.88;7392481;19;20022;-60
2022/11/09 09:04:51;;;;;;;0.57;0.57;;;;;;;15.07;100.00;98349.88;7391964;19;20018;-60
2022/11/09 09:07:17;;;;;;;0.10;0.10;;;;;;;15.07;100.00;98360.38;7391300;19;20007;-60
2022/11/09 09:09:44;;;;;;;1.35;0.38;;;;;;;15.05;100.00;98360.16;7392630;19;20400;-60
2022/11/09 09:12:10;;;;;;;0.28;0.28;;;;;;;15.01;100.00;98368.88;7391389;19;20033;-60
2022/11/09 09:14:36;;;;;;;0.10;0.10;;;;;;;14.97;100.00;98368.47;7389953;19;20499;-60
2022/11/09 09:17:02;;;;;;;0.10;0.05;;;;;;;15.04;100.00;98379.03;7392257;19;20014;-60
2022/11/09 09:19:29;;;;;;;0.82;0.13;;;;;;;15.07;100.00;98371.59;7392718;19;20451;-60
2022/11/09 09:21:55;;;;;;;4.60;0.20;;;;;;;15.05;100.00;98386.13;7395533;19;20018;-60
2022/11/09 09:24:21;;;;;;;0.10;0.00;;;;;;;15.06;100.00;98376.44;7392759;19;20419;-60
2022/11/09 09:26:47;;;;;;;0.20;0.20;;;;;;;15.09;100.00;98389.34;7392195;19;20554;-60
2022/11/09 09:29:14;;;;;;;3.10;0.20;;;;;;;15.11;100.00;98400.06;7395675;19;20088;-60
2022/11/09 09:31:40;;;;;;;0.10;0.00;;;;;;;15.10;100.00;98399.28;7395425;19;20010;-60
2022/11/09 09:34:06;;;;;;;0.30;0.30;;;;;;;15.10;100.00;98404.91;7391580;19;20010;-60
2022/11/09 09:36:34;;;;;;;0.10;0.00;;;;;;;15.12;100.00;98407.91;7390891;19;20014;-60
2022/11/09 09:39:00;;;;;;;0.10;0.00;;;;;;;15.24;100.00;98404.88;7395062;19;20015;-59
2022/11/09 09:41:53;;;;;;;0.10;0.00;;;;;;;15.32;100.00;98414.13;7402237;19;20026;-60
2022/11/09 09:44:33;;;;;;;7.22;0.50;;;;;;;15.43;100.00;98413.88;7400978;19;20474;-60
2022/11/09 09:47:02;;;;;;;0.10;0.00;;;;;;;15.48;100.00;98415.84;7399187;19;20020;-60
2022/11/09 09:49:33;;;;;;;0.43;0.08;;;;;;;15.46;100.00;98429.66;7399283;19;20014;-60
2022/11/09 09:52:23;;;;;;;0.10;0.00;;;;;;;15.56;100.00;98425.09;7403095;19;20466;-60
2022/11/09 09:55:16;;;;;;;0.10;0.00;;;;;;;15.70;100.00;98432.94;7396429;19;20018;-60
2022/11/09 09:57:47;;;;;;;0.10;0.10;;;;;;;15.74;100.00;98435.41;7398653;19;20082;-60
2022/11/09 10:00:25;;;;;;;0.10;0.00;;;;;;;15.79;100.00;98435.28;7397698;19;20088;-60
2022/11/09 10:02:52;;;;;;;0.85;0.40;;;;;;;15.90;100.00;98437.81;7399099;19;20014;-60
2022/11/09 10:05:26;;;;;;;0.10;0.00;;;;;;;15.98;100.00;98440.72;7400386;19;20010;-61
2022/11/09 10:08:09;;;;;;;0.05;0.00;;;;;;;16.09;100.00;98448.13;7403043;19;20014;-61
2022/11/09 10:10:54;;;;;;;0.20;0.10;;;;;;;16.15;100.00;98459.97;7399678;19;20102;-61
2022/11/09 10:13:48;;;;;;;0.10;0.00;;;;;;;16.27;100.00;98467.56;7398147;19;20011;-61
2022/11/09 10:16:26;;;;;;;1.55;0.85;;;;;;;16.41;100.00;98469.03;7397844;19;20062;-60
2022/11/09 10:19:25;;;;;;;0.10;0.00;;;;;;;16.45;100.00;98477.84;7399133;19;20031;-60
2022/11/09 10:21:54;;;;;;;3.92;0.95;;;;;;;16.56;100.00;98490.91;7403551;19;20035;-60
2022/11/09 10:24:47;;;;;;;0.20;0.20;;;;;;;16.29;100.00;98490.25;7398509;19;20010;-60
2022/11/09 10:27:36;;;;;;;0.20;0.20;;;;;;;16.53;100.00;98494.78;7401783;19;20011;-60
2022/11/09 10:30:15;;;;;;;0.20;0.10;;;;;;;16.54;100.00;98505.50;7398591;19;20018;-60
2022/11/09 10:32:47;;;;;;;0.13;0.13;;;;;;;16.51;100.00;98498.16;7397793;19;20349;-61
2022/11/09 10:35:19;;;;;;;0.10;0.08;;;;;;;16.48;100.00;98504.84;7394949;19;20349;-60
2022/11/09 10:37:48;;;;;;;0.08;0.00;;;;;;;16.52;100.00;98510.16;7395086;19;20018;-60
2022/11/09 10:40:24;;;;;;;1.10;0.32;;;;;;;16.53;100.00;98523.66;7396395;19;20010;-60
2022/11/09 10:43:11;;;;;;;0.10;0.00;;;;;;;16.62;100.00;98528.81;7397588;19;20389;-60
2022/11/09 10:46:03;;;;;;;0.20;0.20;;;;;;;16.77;100.00;98538.66;7401146;19;20340;-60
2022/11/09 10:48:48;;;;;;;0.10;0.10;;;;;;;16.88;100.00;98541.19;7397095;19;20011;-60
2022/11/09 10:51:45;;;;;;;0.10;0.00;;;;;;;16.99;100.00;98546.53;7394208;19;20006;-62
2022/11/09 10:54:33;;;;;;;0.10;0.10;;;;;;;17.28;100.00;98543.16;7396149;19;20010;-62
2022/11/09 10:57:21;;;;;;;0.10;0.10;;;;;;;17.39;100.00;98547.72;7402335;19;20018;-60
2022/11/09 11:00:14;;;;;;;0.10;0.00;;;;;;;17.37;100.00;98555.97;7398571;19;20018;-62
2022/11/09 11:03:10;;;;;;;0.17;0.15;;;;;;;17.29;100.00;98546.72;7396561;19;20015;-61
2022/11/09 11:06:00;;;;;;;0.10;0.10;;;;;;;17.10;100.00;98552.63;7396997;19;20070;-61
2022/11/09 11:08:48;;;;;;;0.10;0.00;;;;;;;17.03;100.00;98561.00;7396832;19;20463;-61
2022/11/09 11:11:35;;;;;;;5.97;0.32;;;;;;;16.89;100.00;98565.22;7400952;19;20015;-61
2022/11/09 11:14:32;;;;;;;0.00;0.00;;;;;;;16.78;100.00;98559.84;7396229;19;20015;-63
2022/11/09 11:17:33;;;;;;;0.10;0.00;;;;;;;16.50;100.00;98578.16;7396129;19;20010;-64
2022/11/09 11:20:36;;;;;;;0.30;0.30;;;;;;;16.44;100.00;98577.50;7398154;19;20010;-63
2022/11/09 11:23:23;;;;;;;0.10;0.10;;;;;;;16.66;100.00;98581.88;7396456;19;20010;-64
2022/11/09 11:26:23;;;;;;;0.10;0.00;;;;;;;16.58;100.00;98581.81;7396161;19;20011;-63
2022/11/09 11:29:36;;;;;;;0.40;0.40;;;;;;;16.74;100.00;98576.31;7398562;19;20014;-63
2022/11/09 11:32:22;;;;;;;0.10;0.00;;;;;;;16.71;100.00;98586.59;7395362;19;20086;-63
2022/11/09 11:35:17;;;;;;;0.40;0.40;;;;;;;16.74;100.00;98587.56;7394858;19;20015;-63
2022/11/09 11:38:10;;;;;;;0.10;0.10;;;;;;;16.72;100.00;98590.19;7395426;19;20333;-63